sensor_id;sensor_type;location;lat;lon;timestamp;temperature;humidity
306;DHT22;137;48.578;9.180;2023-10-09T00:01:42;12.80;98.20
306;DHT22;137;48.578;9.180;2023-10-09T00:04:10;12.80;98.20
306;DHT22;137;48.578;9.180;2023-10-09T00:06:37;12.70;98.20
306;DHT22;137;48.578;9.180;2023-10-09T00:09:04;12.70;98.20
306;DHT22;137;48.578;9.180;2023-10-09T00:11:44;12.60;98.20
306;DHT22;137;48.578;9.180;2023-10-09T00:14:12;12.60;98.20
306;DHT22;137;48.578;9.180;2023-10-09T00:16:41;12.60;98.20
306;DHT22;137;48.578;9.180;2023-10-09T00:19:13;12.60;98.20
306;DHT22;137;48.578;9.180;2023-10-09T00:21:43;12.50;98.20
306;DHT22;137;48.578;9.180;2023-10-09T00:24:10;12.50;98.20
306;DHT22;137;48.578;9.180;2023-10-09T00:26:40;12.50;98.20
306;DHT22;137;48.578;9.180;2023-10-09T00:29:13;12.50;98.20
306;DHT22;137;48.578;9.180;2023-10-09T00:31:50;12.50;98.20
306;DHT22;137;48.578;9.180;2023-10-09T00:34:22;12.40;98.20
306;DHT22;137;48.578;9.180;2023-10-09T00:36:52;12.40;98.20
306;DHT22;137;48.578;9.180;2023-10-09T00:39:17;12.40;98.20
306;DHT22;137;48.578;9.180;2023-10-09T00:41:59;12.40;98.20
306;DHT22;137;48.578;9.180;2023-10-09T00:44:30;12.40;98.20
306;DHT22;137;48.578;9.180;2023-10-09T00:47:04;12.40;98.20
306;DHT22;137;48.578;9.180;2023-10-09T00:49:37;12.30;98.20
306;DHT22;137;48.578;9.180;2023-10-09T00:52:08;12.30;98.20
306;DHT22;137;48.578;9.180;2023-10-09T00:54:43;12.30;98.20
306;DHT22;137;48.578;9.180;2023-10-09T00:57:17;12.30;98.20
306;DHT22;137;48.578;9.180;2023-10-09T00:59:53;12.30;98.20
306;DHT22;137;48.578;9.180;2023-10-09T01:02:26;12.30;98.20
306;DHT22;137;48.578;9.180;2023-10-09T01:05:01;12.30;98.20
306;DHT22;137;48.578;9.180;2023-10-09T01:07:44;12.30;98.20
306;DHT22;137;48.578;9.180;2023-10-09T01:10:11;12.30;98.20
306;DHT22;137;48.578;9.180;2023-10-09T01:12:41;12.30;98.20
306;DHT22;137;48.578;9.180;2023-10-09T01:15:11;12.40;98.20
306;DHT22;137;48.578;9.180;2023-10-09T01:17:59;12.30;98.20
306;DHT22;137;48.578;9.180;2023-10-09T01:20:26;12.30;98.20
306;DHT22;137;48.578;9.180;2023-10-09T01:23:03;12.30;98.20
306;DHT22;137;48.578;9.180;2023-10-09T01:25:31;12.40;98.20
306;DHT22;137;48.578;9.180;2023-10-09T01:28:10;12.30;98.20
306;DHT22;137;48.578;9.180;2023-10-09T01:30:41;12.40;98.20
306;DHT22;137;48.578;9.180;2023-10-09T01:33:08;12.40;98.20
306;DHT22;137;48.578;9.180;2023-10-09T01:35:44;12.40;98.20
306;DHT22;137;48.578;9.180;2023-10-09T01:38:16;12.40;98.20
306;DHT22;137;48.578;9.180;2023-10-09T01:40:44;12.40;98.20
306;DHT22;137;48.578;9.180;2023-10-09T01:43:17;12.50;98.20
306;DHT22;137;48.578;9.180;2023-10-09T01:45:44;12.50;98.20
306;DHT22;137;48.578;9.180;2023-10-09T01:48:12;12.50;98.20
306;DHT22;137;48.578;9.180;2023-10-09T01:50:44;12.60;98.20
306;DHT22;137;48.578;9.180;2023-10-09T01:53:14;12.60;98.20
306;DHT22;137;48.578;9.180;2023-10-09T01:55:44;12.60;98.20
306;DHT22;137;48.578;9.180;2023-10-09T01:58:12;12.60;98.20
306;DHT22;137;48.578;9.180;2023-10-09T02:00:49;12.70;98.20
306;DHT22;137;48.578;9.180;2023-10-09T02:03:20;12.70;98.20
306;DHT22;137;48.578;9.180;2023-10-09T02:05:50;12.70;98.20
306;DHT22;137;48.578;9.180;2023-10-09T02:08:18;12.70;98.20
306;DHT22;137;48.578;9.180;2023-10-09T02:10:49;12.70;98.20
306;DHT22;137;48.578;9.180;2023-10-09T02:13:20;12.70;98.20
306;DHT22;137;48.578;9.180;2023-10-09T02:15:56;12.70;98.20
306;DHT22;137;48.578;9.180;2023-10-09T02:18:25;12.60;98.20
306;DHT22;137;48.578;9.180;2023-10-09T02:21:06;12.60;98.20
306;DHT22;137;48.578;9.180;2023-10-09T02:23:40;12.70;98.20
306;DHT22;137;48.578;9.180;2023-10-09T02:26:13;12.70;98.20
306;DHT22;137;48.578;9.180;2023-10-09T02:28:46;12.80;98.20
306;DHT22;137;48.578;9.180;2023-10-09T02:31:18;12.80;98.20
306;DHT22;137;48.578;9.180;2023-10-09T02:33:48;12.70;98.20
306;DHT22;137;48.578;9.180;2023-10-09T02:36:19;12.70;98.20
306;DHT22;137;48.578;9.180;2023-10-09T02:38:45;12.70;98.20
306;DHT22;137;48.578;9.180;2023-10-09T02:41:15;12.60;98.20
306;DHT22;137;48.578;9.180;2023-10-09T02:43:48;12.60;98.20
306;DHT22;137;48.578;9.180;2023-10-09T02:46:18;12.60;98.20
306;DHT22;137;48.578;9.180;2023-10-09T02:48:47;12.60;98.20
306;DHT22;137;48.578;9.180;2023-10-09T02:51:17;12.60;98.20
306;DHT22;137;48.578;9.180;2023-10-09T02:53:58;12.60;98.20
306;DHT22;137;48.578;9.180;2023-10-09T02:56:34;12.50;98.20
306;DHT22;137;48.578;9.180;2023-10-09T02:59:06;12.50;98.20
306;DHT22;137;48.578;9.180;2023-10-09T03:01:33;12.50;98.20
306;DHT22;137;48.578;9.180;2023-10-09T03:04:03;12.50;98.20
306;DHT22;137;48.578;9.180;2023-10-09T03:06:31;12.50;98.20
306;DHT22;137;48.578;9.180;2023-10-09T03:08:59;12.50;98.20
306;DHT22;137;48.578;9.180;2023-10-09T03:11:26;12.40;98.20
306;DHT22;137;48.578;9.180;2023-10-09T03:13:54;12.50;98.20
306;DHT22;137;48.578;9.180;2023-10-09T03:16:21;12.50;98.20
306;DHT22;137;48.578;9.180;2023-10-09T03:18:51;12.50;98.20
306;DHT22;137;48.578;9.180;2023-10-09T03:21:18;12.50;98.20
306;DHT22;137;48.578;9.180;2023-10-09T03:23:45;12.50;98.20
306;DHT22;137;48.578;9.180;2023-10-09T03:26:15;12.50;98.20
306;DHT22;137;48.578;9.180;2023-10-09T03:28:43;12.50;98.20
306;DHT22;137;48.578;9.180;2023-10-09T03:31:12;12.50;98.20
306;DHT22;137;48.578;9.180;2023-10-09T03:33:38;12.50;98.20
306;DHT22;137;48.578;9.180;2023-10-09T03:36:05;12.60;98.20
306;DHT22;137;48.578;9.180;2023-10-09T03:38:35;12.60;98.20
306;DHT22;137;48.578;9.180;2023-10-09T03:41:02;12.60;98.20
306;DHT22;137;48.578;9.180;2023-10-09T03:43:32;12.70;98.20
306;DHT22;137;48.578;9.180;2023-10-09T03:46:03;12.70;98.20
306;DHT22;137;48.578;9.180;2023-10-09T03:48:32;12.60;98.20
306;DHT22;137;48.578;9.180;2023-10-09T03:51:00;12.70;98.20
306;DHT22;137;48.578;9.180;2023-10-09T03:53:34;12.70;98.20
306;DHT22;137;48.578;9.180;2023-10-09T03:56:02;12.60;98.20
306;DHT22;137;48.578;9.180;2023-10-09T03:58:31;12.60;98.20
306;DHT22;137;48.578;9.180;2023-10-09T04:00:59;12.50;98.20
306;DHT22;137;48.578;9.180;2023-10-09T04:03:26;12.40;98.20
306;DHT22;137;48.578;9.180;2023-10-09T04:05:54;12.40;98.20
306;DHT22;137;48.578;9.180;2023-10-09T04:08:21;12.40;98.20
306;DHT22;137;48.578;9.180;2023-10-09T04:10:54;12.30;98.20
306;DHT22;137;48.578;9.180;2023-10-09T04:13:27;12.30;98.20
306;DHT22;137;48.578;9.180;2023-10-09T04:15:59;12.20;98.20
306;DHT22;137;48.578;9.180;2023-10-09T04:18:34;12.20;98.20
306;DHT22;137;48.578;9.180;2023-10-09T04:21:05;12.20;98.20
306;DHT22;137;48.578;9.180;2023-10-09T04:23:51;12.20;98.20
306;DHT22;137;48.578;9.180;2023-10-09T04:26:48;12.10;98.20
306;DHT22;137;48.578;9.180;2023-10-09T04:29:21;12.10;98.20
306;DHT22;137;48.578;9.180;2023-10-09T04:31:52;12.00;98.20
306;DHT22;137;48.578;9.180;2023-10-09T04:34:20;12.00;98.20
306;DHT22;137;48.578;9.180;2023-10-09T04:36:56;11.90;98.20
306;DHT22;137;48.578;9.180;2023-10-09T04:39:26;11.90;98.20
306;DHT22;137;48.578;9.180;2023-10-09T04:42:03;11.80;98.20
306;DHT22;137;48.578;9.180;2023-10-09T04:45:02;11.80;98.20
306;DHT22;137;48.578;9.180;2023-10-09T04:48:16;11.80;98.20
306;DHT22;137;48.578;9.180;2023-10-09T04:50:58;11.80;98.20
306;DHT22;137;48.578;9.180;2023-10-09T04:53:55;11.80;98.20
306;DHT22;137;48.578;9.180;2023-10-09T04:56:38;11.80;98.20
306;DHT22;137;48.578;9.180;2023-10-09T04:59:17;11.80;98.20
306;DHT22;137;48.578;9.180;2023-10-09T05:01:44;11.80;98.20
306;DHT22;137;48.578;9.180;2023-10-09T05:04:23;11.80;98.20
306;DHT22;137;48.578;9.180;2023-10-09T05:07:05;11.80;98.20
306;DHT22;137;48.578;9.180;2023-10-09T05:09:50;11.80;98.20
306;DHT22;137;48.578;9.180;2023-10-09T05:12:22;11.90;98.20
306;DHT22;137;48.578;9.180;2023-10-09T05:14:52;11.90;98.20
306;DHT22;137;48.578;9.180;2023-10-09T05:17:34;12.00;98.20
306;DHT22;137;48.578;9.180;2023-10-09T05:20:02;12.10;98.20
306;DHT22;137;48.578;9.180;2023-10-09T05:22:46;12.10;98.20
306;DHT22;137;48.578;9.180;2023-10-09T05:25:26;12.10;98.20
306;DHT22;137;48.578;9.180;2023-10-09T05:28:10;12.10;98.20
306;DHT22;137;48.578;9.180;2023-10-09T05:33:28;12.20;98.20
306;DHT22;137;48.578;9.180;2023-10-09T05:35:55;12.20;98.20
306;DHT22;137;48.578;9.180;2023-10-09T05:38:39;12.30;98.20
306;DHT22;137;48.578;9.180;2023-10-09T05:41:14;12.30;98.20
306;DHT22;137;48.578;9.180;2023-10-09T05:44:13;12.40;98.20
306;DHT22;137;48.578;9.180;2023-10-09T05:46:56;12.40;98.20
306;DHT22;137;48.578;9.180;2023-10-09T05:49:40;12.40;98.20
306;DHT22;137;48.578;9.180;2023-10-09T05:52:21;12.50;98.20
306;DHT22;137;48.578;9.180;2023-10-09T05:55:26;12.50;98.20
306;DHT22;137;48.578;9.180;2023-10-09T05:58:12;12.60;98.20
306;DHT22;137;48.578;9.180;2023-10-09T06:01:02;12.70;98.20
306;DHT22;137;48.578;9.180;2023-10-09T06:03:52;12.70;98.20
306;DHT22;137;48.578;9.180;2023-10-09T06:06:30;12.80;98.20
306;DHT22;137;48.578;9.180;2023-10-09T06:09:01;12.90;98.20
306;DHT22;137;48.578;9.180;2023-10-09T06:11:46;12.90;98.20
306;DHT22;137;48.578;9.180;2023-10-09T06:14:17;13.00;98.20
306;DHT22;137;48.578;9.180;2023-10-09T06:16:51;13.00;98.20
306;DHT22;137;48.578;9.180;2023-10-09T06:19:27;13.10;98.20
306;DHT22;137;48.578;9.180;2023-10-09T06:21:54;13.10;98.20
306;DHT22;137;48.578;9.180;2023-10-09T06:25:06;13.10;98.20
306;DHT22;137;48.578;9.180;2023-10-09T06:27:35;13.10;98.20
306;DHT22;137;48.578;9.180;2023-10-09T06:30:24;13.20;98.20
306;DHT22;137;48.578;9.180;2023-10-09T06:32:50;13.20;98.20
306;DHT22;137;48.578;9.180;2023-10-09T06:35:23;13.30;98.20
306;DHT22;137;48.578;9.180;2023-10-09T06:37:56;13.30;98.20
306;DHT22;137;48.578;9.180;2023-10-09T06:40:47;13.40;98.20
306;DHT22;137;48.578;9.180;2023-10-09T06:43:48;13.50;98.20
306;DHT22;137;48.578;9.180;2023-10-09T06:46:20;13.70;98.20
306;DHT22;137;48.578;9.180;2023-10-09T06:49:10;13.80;98.20
306;DHT22;137;48.578;9.180;2023-10-09T06:51:54;13.90;98.20
306;DHT22;137;48.578;9.180;2023-10-09T06:54:34;14.00;98.20
306;DHT22;137;48.578;9.180;2023-10-09T06:57:03;14.00;98.20
306;DHT22;137;48.578;9.180;2023-10-09T07:00:01;14.10;98.20
306;DHT22;137;48.578;9.180;2023-10-09T07:02:47;14.20;98.20
306;DHT22;137;48.578;9.180;2023-10-09T07:05:14;14.30;98.20
306;DHT22;137;48.578;9.180;2023-10-09T07:07:43;14.40;98.20
306;DHT22;137;48.578;9.180;2023-10-09T07:10:21;14.40;98.20
306;DHT22;137;48.578;9.180;2023-10-09T07:12:59;14.50;98.20
306;DHT22;137;48.578;9.180;2023-10-09T07:15:27;14.60;98.20
306;DHT22;137;48.578;9.180;2023-10-09T07:18:13;14.70;98.20
306;DHT22;137;48.578;9.180;2023-10-09T07:20:49;14.80;98.20
306;DHT22;137;48.578;9.180;2023-10-09T07:23:27;14.90;98.20
306;DHT22;137;48.578;9.180;2023-10-09T07:26:03;15.00;98.20
306;DHT22;137;48.578;9.180;2023-10-09T07:28:44;15.10;98.20
306;DHT22;137;48.578;9.180;2023-10-09T07:31:20;15.20;98.20
306;DHT22;137;48.578;9.180;2023-10-09T07:34:07;15.30;98.20
306;DHT22;137;48.578;9.180;2023-10-09T07:36:47;15.50;98.20
306;DHT22;137;48.578;9.180;2023-10-09T07:39:18;15.60;98.20
306;DHT22;137;48.578;9.180;2023-10-09T07:41:48;15.60;98.20
306;DHT22;137;48.578;9.180;2023-10-09T07:44:27;15.80;98.20
306;DHT22;137;48.578;9.180;2023-10-09T07:47:07;16.00;98.20
306;DHT22;137;48.578;9.180;2023-10-09T07:49:45;16.10;98.20
306;DHT22;137;48.578;9.180;2023-10-09T07:52:21;16.30;98.20
306;DHT22;137;48.578;9.180;2023-10-09T07:54:51;16.40;98.20
306;DHT22;137;48.578;9.180;2023-10-09T07:57:38;16.50;98.20
306;DHT22;137;48.578;9.180;2023-10-09T08:00:06;16.60;98.20
306;DHT22;137;48.578;9.180;2023-10-09T08:02:59;16.70;98.20
306;DHT22;137;48.578;9.180;2023-10-09T08:05:29;16.90;98.20
306;DHT22;137;48.578;9.180;2023-10-09T08:08:00;17.00;98.20
306;DHT22;137;48.578;9.180;2023-10-09T08:10:52;17.10;98.20
306;DHT22;137;48.578;9.180;2023-10-09T08:13:36;17.20;98.20
306;DHT22;137;48.578;9.180;2023-10-09T08:16:26;17.40;98.20
306;DHT22;137;48.578;9.180;2023-10-09T08:19:02;17.60;98.20
306;DHT22;137;48.578;9.180;2023-10-09T08:21:50;17.80;98.20
306;DHT22;137;48.578;9.180;2023-10-09T08:24:42;18.00;98.20
306;DHT22;137;48.578;9.180;2023-10-09T08:27:18;18.30;98.20
306;DHT22;137;48.578;9.180;2023-10-09T08:30:10;18.50;98.20
306;DHT22;137;48.578;9.180;2023-10-09T08:32:54;18.80;98.20
306;DHT22;137;48.578;9.180;2023-10-09T08:35:28;18.90;98.20
306;DHT22;137;48.578;9.180;2023-10-09T08:37:56;19.10;98.20
306;DHT22;137;48.578;9.180;2023-10-09T08:40:32;19.20;98.20
306;DHT22;137;48.578;9.180;2023-10-09T08:43:08;19.40;98.20
306;DHT22;137;48.578;9.180;2023-10-09T08:45:37;19.50;98.20
306;DHT22;137;48.578;9.180;2023-10-09T08:48:05;19.60;98.20
306;DHT22;137;48.578;9.180;2023-10-09T08:50:32;19.80;98.20
306;DHT22;137;48.578;9.180;2023-10-09T08:53:01;19.90;98.20
306;DHT22;137;48.578;9.180;2023-10-09T08:55:29;20.00;98.20
306;DHT22;137;48.578;9.180;2023-10-09T08:57:56;20.10;98.20
306;DHT22;137;48.578;9.180;2023-10-09T09:00:24;20.10;98.20
306;DHT22;137;48.578;9.180;2023-10-09T09:02:52;20.20;98.20
306;DHT22;137;48.578;9.180;2023-10-09T09:05:20;20.20;98.20
306;DHT22;137;48.578;9.180;2023-10-09T09:07:47;20.30;98.20
306;DHT22;137;48.578;9.180;2023-10-09T09:13:22;20.40;98.20
306;DHT22;137;48.578;9.180;2023-10-09T09:15:48;20.60;98.20
306;DHT22;137;48.578;9.180;2023-10-09T09:18:18;20.70;98.20
306;DHT22;137;48.578;9.180;2023-10-09T09:20:46;20.80;98.20
306;DHT22;137;48.578;9.180;2023-10-09T09:23:15;21.00;98.20
306;DHT22;137;48.578;9.180;2023-10-09T09:25:49;21.20;98.20
306;DHT22;137;48.578;9.180;2023-10-09T09:28:25;21.30;98.20
306;DHT22;137;48.578;9.180;2023-10-09T09:31:06;21.40;98.20
306;DHT22;137;48.578;9.180;2023-10-09T09:33:38;21.50;98.20
306;DHT22;137;48.578;9.180;2023-10-09T09:36:06;21.70;98.20
306;DHT22;137;48.578;9.180;2023-10-09T09:38:34;21.80;98.20
306;DHT22;137;48.578;9.180;2023-10-09T09:41:08;22.00;98.20
306;DHT22;137;48.578;9.180;2023-10-09T09:43:37;22.00;98.20
306;DHT22;137;48.578;9.180;2023-10-09T09:46:07;22.10;98.20
306;DHT22;137;48.578;9.180;2023-10-09T09:48:37;22.30;98.20
306;DHT22;137;48.578;9.180;2023-10-09T09:51:10;22.40;98.20
306;DHT22;137;48.578;9.180;2023-10-09T09:53:39;22.70;98.20
306;DHT22;137;48.578;9.180;2023-10-09T09:56:06;22.80;98.20
306;DHT22;137;48.578;9.180;2023-10-09T09:58:43;23.00;98.20
306;DHT22;137;48.578;9.180;2023-10-09T10:01:13;23.10;98.20
306;DHT22;137;48.578;9.180;2023-10-09T10:03:54;23.20;98.20
306;DHT22;137;48.578;9.180;2023-10-09T10:06:23;23.50;98.20
306;DHT22;137;48.578;9.180;2023-10-09T10:08:52;23.70;98.20
306;DHT22;137;48.578;9.180;2023-10-09T10:11:43;24.00;98.20
306;DHT22;137;48.578;9.180;2023-10-09T10:14:12;24.40;98.20
306;DHT22;137;48.578;9.180;2023-10-09T10:17:00;24.50;98.20
306;DHT22;137;48.578;9.180;2023-10-09T10:22:26;24.70;98.20
306;DHT22;137;48.578;9.180;2023-10-09T10:24:53;24.90;98.20
306;DHT22;137;48.578;9.180;2023-10-09T10:27:24;25.20;98.20
306;DHT22;137;48.578;9.180;2023-10-09T10:32:59;25.50;98.20
306;DHT22;137;48.578;9.180;2023-10-09T10:35:35;25.40;98.20
306;DHT22;137;48.578;9.180;2023-10-09T10:38:28;25.20;98.20
306;DHT22;137;48.578;9.180;2023-10-09T10:41:09;25.10;98.20
306;DHT22;137;48.578;9.180;2023-10-09T10:43:39;25.10;98.20
306;DHT22;137;48.578;9.180;2023-10-09T10:46:21;25.20;98.20
306;DHT22;137;48.578;9.180;2023-10-09T10:49:00;25.40;98.20
306;DHT22;137;48.578;9.180;2023-10-09T10:51:41;25.60;98.20
306;DHT22;137;48.578;9.180;2023-10-09T10:54:23;25.70;98.20
306;DHT22;137;48.578;9.180;2023-10-09T10:57:15;25.50;98.20
306;DHT22;137;48.578;9.180;2023-10-09T10:59:45;25.40;98.20
306;DHT22;137;48.578;9.180;2023-10-09T11:02:16;25.30;98.20
306;DHT22;137;48.578;9.180;2023-10-09T11:04:49;25.00;98.20
306;DHT22;137;48.578;9.180;2023-10-09T11:07:39;24.80;98.20
306;DHT22;137;48.578;9.180;2023-10-09T11:10:07;24.60;98.20
306;DHT22;137;48.578;9.180;2023-10-09T11:12:43;24.50;98.20
306;DHT22;137;48.578;9.180;2023-10-09T11:15:32;24.50;98.20
306;DHT22;137;48.578;9.180;2023-10-09T11:18:04;24.50;98.20
306;DHT22;137;48.578;9.180;2023-10-09T11:20:35;24.50;98.20
306;DHT22;137;48.578;9.180;2023-10-09T11:23:06;24.50;98.20
306;DHT22;137;48.578;9.180;2023-10-09T11:25:42;24.40;98.20
306;DHT22;137;48.578;9.180;2023-10-09T11:28:17;24.50;98.20
306;DHT22;137;48.578;9.180;2023-10-09T11:31:06;24.60;98.20
306;DHT22;137;48.578;9.180;2023-10-09T11:33:43;24.70;98.20
306;DHT22;137;48.578;9.180;2023-10-09T11:36:12;24.80;98.20
306;DHT22;137;48.578;9.180;2023-10-09T11:38:42;24.90;98.20
306;DHT22;137;48.578;9.180;2023-10-09T11:41:14;25.10;98.20
306;DHT22;137;48.578;9.180;2023-10-09T11:43:52;25.20;98.20
306;DHT22;137;48.578;9.180;2023-10-09T11:46:21;25.20;98.20
306;DHT22;137;48.578;9.180;2023-10-09T11:49:14;25.20;98.20
306;DHT22;137;48.578;9.180;2023-10-09T11:51:52;25.00;98.20
306;DHT22;137;48.578;9.180;2023-10-09T11:54:36;25.00;98.20
306;DHT22;137;48.578;9.180;2023-10-09T11:57:03;24.90;98.20
306;DHT22;137;48.578;9.180;2023-10-09T11:59:34;24.80;98.20
306;DHT22;137;48.578;9.180;2023-10-09T12:02:04;24.60;98.20
306;DHT22;137;48.578;9.180;2023-10-09T12:04:31;24.60;98.20
306;DHT22;137;48.578;9.180;2023-10-09T12:06:59;24.50;98.20
306;DHT22;137;48.578;9.180;2023-10-09T12:09:33;24.30;98.20
306;DHT22;137;48.578;9.180;2023-10-09T12:12:00;24.10;98.20
306;DHT22;137;48.578;9.180;2023-10-09T12:14:28;23.90;98.20
306;DHT22;137;48.578;9.180;2023-10-09T12:16:59;23.80;98.20
306;DHT22;137;48.578;9.180;2023-10-09T12:19:31;23.70;98.20
306;DHT22;137;48.578;9.180;2023-10-09T12:21:59;23.60;98.20
306;DHT22;137;48.578;9.180;2023-10-09T12:24:27;23.70;98.20
306;DHT22;137;48.578;9.180;2023-10-09T12:26:54;23.80;98.20
306;DHT22;137;48.578;9.180;2023-10-09T12:29:23;23.80;98.20
306;DHT22;137;48.578;9.180;2023-10-09T12:31:54;23.90;98.20
306;DHT22;137;48.578;9.180;2023-10-09T12:34:24;24.00;98.20
306;DHT22;137;48.578;9.180;2023-10-09T12:36:52;24.10;98.20
306;DHT22;137;48.578;9.180;2023-10-09T12:39:20;24.30;98.20
306;DHT22;137;48.578;9.180;2023-10-09T12:41:47;24.40;98.20
306;DHT22;137;48.578;9.180;2023-10-09T12:44:19;24.50;98.20
306;DHT22;137;48.578;9.180;2023-10-09T12:46:46;24.70;98.20
306;DHT22;137;48.578;9.180;2023-10-09T12:49:18;24.80;98.20
306;DHT22;137;48.578;9.180;2023-10-09T12:51:45;24.90;98.20
306;DHT22;137;48.578;9.180;2023-10-09T12:54:12;25.00;98.20
306;DHT22;137;48.578;9.180;2023-10-09T12:56:41;25.20;98.20
306;DHT22;137;48.578;9.180;2023-10-09T12:59:08;25.30;98.20
306;DHT22;137;48.578;9.180;2023-10-09T13:01:40;25.40;98.20
306;DHT22;137;48.578;9.180;2023-10-09T13:04:09;25.40;98.20
306;DHT22;137;48.578;9.180;2023-10-09T13:06:37;25.60;98.20
306;DHT22;137;48.578;9.180;2023-10-09T13:09:09;25.70;98.20
306;DHT22;137;48.578;9.180;2023-10-09T13:11:36;25.80;98.20
306;DHT22;137;48.578;9.180;2023-10-09T13:14:07;25.70;98.20
306;DHT22;137;48.578;9.180;2023-10-09T13:16:42;25.80;98.20
306;DHT22;137;48.578;9.180;2023-10-09T13:19:09;25.90;98.20
306;DHT22;137;48.578;9.180;2023-10-09T13:21:36;26.00;98.20
306;DHT22;137;48.578;9.180;2023-10-09T13:24:05;26.00;98.20
306;DHT22;137;48.578;9.180;2023-10-09T13:26:38;25.90;98.20
306;DHT22;137;48.578;9.180;2023-10-09T13:29:07;25.70;98.20
306;DHT22;137;48.578;9.180;2023-10-09T13:31:35;25.70;98.20
306;DHT22;137;48.578;9.180;2023-10-09T13:34:04;25.60;98.20
306;DHT22;137;48.578;9.180;2023-10-09T13:36:32;25.70;98.20
306;DHT22;137;48.578;9.180;2023-10-09T13:39:00;25.80;98.20
306;DHT22;137;48.578;9.180;2023-10-09T13:41:45;25.90;98.20
306;DHT22;137;48.578;9.180;2023-10-09T13:44:13;26.00;98.20
306;DHT22;137;48.578;9.180;2023-10-09T13:46:40;25.80;98.20
306;DHT22;137;48.578;9.180;2023-10-09T13:49:07;25.80;98.20
306;DHT22;137;48.578;9.180;2023-10-09T13:51:37;25.70;98.20
306;DHT22;137;48.578;9.180;2023-10-09T13:54:09;25.70;98.20
306;DHT22;137;48.578;9.180;2023-10-09T13:56:36;25.60;98.20
306;DHT22;137;48.578;9.180;2023-10-09T13:59:04;25.60;98.20
306;DHT22;137;48.578;9.180;2023-10-09T14:01:37;25.70;98.20
306;DHT22;137;48.578;9.180;2023-10-09T14:04:05;25.90;98.20
306;DHT22;137;48.578;9.180;2023-10-09T14:06:39;26.10;98.20
306;DHT22;137;48.578;9.180;2023-10-09T14:09:10;26.30;98.20
306;DHT22;137;48.578;9.180;2023-10-09T14:11:54;26.40;98.20
306;DHT22;137;48.578;9.180;2023-10-09T14:14:32;26.40;98.20
306;DHT22;137;48.578;9.180;2023-10-09T14:17:00;26.60;98.20
306;DHT22;137;48.578;9.180;2023-10-09T14:19:27;26.70;98.20
306;DHT22;137;48.578;9.180;2023-10-09T14:21:58;26.80;98.20
306;DHT22;137;48.578;9.180;2023-10-09T14:24:25;27.00;98.20
306;DHT22;137;48.578;9.180;2023-10-09T14:26:58;27.00;98.20
306;DHT22;137;48.578;9.180;2023-10-09T14:29:28;27.20;98.20
306;DHT22;137;48.578;9.180;2023-10-09T14:31:56;27.30;98.20
306;DHT22;137;48.578;9.180;2023-10-09T14:34:27;27.30;97.50
306;DHT22;137;48.578;9.180;2023-10-09T14:36:58;27.30;96.20
306;DHT22;137;48.578;9.180;2023-10-09T14:39:26;27.20;96.40
306;DHT22;137;48.578;9.180;2023-10-09T14:41:53;27.20;96.70
306;DHT22;137;48.578;9.180;2023-10-09T14:44:20;27.10;97.50
306;DHT22;137;48.578;9.180;2023-10-09T14:46:49;27.10;97.00
306;DHT22;137;48.578;9.180;2023-10-09T14:49:16;27.00;96.30
306;DHT22;137;48.578;9.180;2023-10-09T14:51:48;26.90;93.50
306;DHT22;137;48.578;9.180;2023-10-09T14:54:16;26.70;94.40
306;DHT22;137;48.578;9.180;2023-10-09T14:56:44;26.50;95.00
306;DHT22;137;48.578;9.180;2023-10-09T14:59:11;26.40;94.60
306;DHT22;137;48.578;9.180;2023-10-09T15:01:44;26.30;96.10
306;DHT22;137;48.578;9.180;2023-10-09T15:04:13;26.20;97.90
306;DHT22;137;48.578;9.180;2023-10-09T15:06:40;26.10;98.20
306;DHT22;137;48.578;9.180;2023-10-09T15:09:08;26.00;98.20
306;DHT22;137;48.578;9.180;2023-10-09T15:11:35;25.90;98.20
306;DHT22;137;48.578;9.180;2023-10-09T15:14:04;26.00;98.20
306;DHT22;137;48.578;9.180;2023-10-09T15:16:34;26.00;98.20
306;DHT22;137;48.578;9.180;2023-10-09T15:19:04;26.00;98.20
306;DHT22;137;48.578;9.180;2023-10-09T15:21:31;25.90;98.20
306;DHT22;137;48.578;9.180;2023-10-09T15:23:59;25.80;98.20
306;DHT22;137;48.578;9.180;2023-10-09T15:26:27;25.80;98.20
306;DHT22;137;48.578;9.180;2023-10-09T15:29:00;25.70;98.20
306;DHT22;137;48.578;9.180;2023-10-09T15:31:29;25.50;98.20
306;DHT22;137;48.578;9.180;2023-10-09T15:33:57;25.30;98.20
306;DHT22;137;48.578;9.180;2023-10-09T15:36:24;25.10;98.20
306;DHT22;137;48.578;9.180;2023-10-09T15:38:54;24.90;98.20
306;DHT22;137;48.578;9.180;2023-10-09T15:41:33;24.70;98.20
306;DHT22;137;48.578;9.180;2023-10-09T15:44:00;24.60;98.20
306;DHT22;137;48.578;9.180;2023-10-09T15:46:27;24.40;98.20
306;DHT22;137;48.578;9.180;2023-10-09T15:48:59;24.30;98.20
306;DHT22;137;48.578;9.180;2023-10-09T15:51:26;24.10;98.20
306;DHT22;137;48.578;9.180;2023-10-09T15:53:53;24.00;98.20
306;DHT22;137;48.578;9.180;2023-10-09T15:56:22;23.90;98.20
306;DHT22;137;48.578;9.180;2023-10-09T15:58:50;23.80;98.20
306;DHT22;137;48.578;9.180;2023-10-09T16:01:19;23.70;98.20
306;DHT22;137;48.578;9.180;2023-10-09T16:03:46;23.60;98.20
306;DHT22;137;48.578;9.180;2023-10-09T16:06:14;23.50;98.20
306;DHT22;137;48.578;9.180;2023-10-09T16:08:42;23.40;98.20
306;DHT22;137;48.578;9.180;2023-10-09T16:11:10;23.30;98.20
306;DHT22;137;48.578;9.180;2023-10-09T16:13:38;23.20;98.20
306;DHT22;137;48.578;9.180;2023-10-09T16:16:06;23.10;98.20
306;DHT22;137;48.578;9.180;2023-10-09T16:18:35;23.00;98.20
306;DHT22;137;48.578;9.180;2023-10-09T16:21:03;22.80;98.20
306;DHT22;137;48.578;9.180;2023-10-09T16:23:31;22.70;98.20
306;DHT22;137;48.578;9.180;2023-10-09T16:26:02;22.60;98.20
306;DHT22;137;48.578;9.180;2023-10-09T16:28:35;22.50;98.20
306;DHT22;137;48.578;9.180;2023-10-09T16:31:06;22.40;98.20
306;DHT22;137;48.578;9.180;2023-10-09T16:33:39;22.20;98.20
306;DHT22;137;48.578;9.180;2023-10-09T16:36:05;22.10;98.20
306;DHT22;137;48.578;9.180;2023-10-09T16:38:32;22.00;98.20
306;DHT22;137;48.578;9.180;2023-10-09T16:41:01;21.80;98.20
306;DHT22;137;48.578;9.180;2023-10-09T16:43:33;21.70;98.20
306;DHT22;137;48.578;9.180;2023-10-09T16:46:07;21.50;98.20
306;DHT22;137;48.578;9.180;2023-10-09T16:48:35;21.40;98.20
306;DHT22;137;48.578;9.180;2023-10-09T16:51:02;21.30;98.20
306;DHT22;137;48.578;9.180;2023-10-09T16:53:31;21.10;98.20
306;DHT22;137;48.578;9.180;2023-10-09T16:56:02;21.10;98.20
306;DHT22;137;48.578;9.180;2023-10-09T16:58:34;21.00;98.20
306;DHT22;137;48.578;9.180;2023-10-09T17:01:01;20.90;98.20
306;DHT22;137;48.578;9.180;2023-10-09T17:03:30;20.80;98.20
306;DHT22;137;48.578;9.180;2023-10-09T17:05:57;20.60;98.20
306;DHT22;137;48.578;9.180;2023-10-09T17:08:29;20.50;98.20
306;DHT22;137;48.578;9.180;2023-10-09T17:13:29;20.30;98.20
306;DHT22;137;48.578;9.180;2023-10-09T17:15:56;20.20;98.20
306;DHT22;137;48.578;9.180;2023-10-09T17:18:23;20.20;98.20
306;DHT22;137;48.578;9.180;2023-10-09T17:20:54;20.10;98.20
306;DHT22;137;48.578;9.180;2023-10-09T17:23:20;20.10;98.20
306;DHT22;137;48.578;9.180;2023-10-09T17:25:47;20.00;98.20
306;DHT22;137;48.578;9.180;2023-10-09T17:28:22;19.90;98.20